createdAt,value
2018-10-09T00:00:06.977Z,9.91
2018-10-09T00:01:06.884Z,9.86
2018-10-09T00:02:06.814Z,9.89
2018-10-09T00:03:06.760Z,9.93
2018-10-09T00:04:06.643Z,9.86
2018-10-09T00:06:55.137Z,9.83
2018-10-09T00:07:55.065Z,9.85
2018-10-09T00:08:54.966Z,9.83
2018-10-09T00:11:37.194Z,9.91
2018-10-09T00:12:37.067Z,9.86
2018-10-09T00:13:36.966Z,9.85
2018-10-09T00:16:19.156Z,9.56
2018-10-09T00:19:01.191Z,9.53
2018-10-09T00:20:01.101Z,9.58
2018-10-09T00:21:00.966Z,9.53
2018-10-09T00:22:00.917Z,9.44
2018-10-09T00:23:00.806Z,9.59
2018-10-09T00:24:02.724Z,9.56
2018-10-09T00:25:00.690Z,9.56
2018-10-09T00:27:42.648Z,9.67
2018-10-09T00:31:06.663Z,9.68
2018-10-09T00:32:06.559Z,9.71
2018-10-09T00:34:48.650Z,9.80
2018-10-09T00:35:48.586Z,9.55
2018-10-09T00:36:48.471Z,9.63
2018-10-09T00:37:48.458Z,9.63
2018-10-09T00:38:48.305Z,9.62
2018-10-09T00:41:30.660Z,9.60
2018-10-09T00:42:30.570Z,9.49
2018-10-09T00:43:30.475Z,9.59
2018-10-09T00:45:24.757Z,9.48
2018-10-09T00:45:30.329Z,9.48
2018-10-09T00:46:30.260Z,9.56
2018-10-09T00:47:30.166Z,9.42
2018-10-09T01:09:53.052Z,9.73
2018-10-09T01:10:51.980Z,9.73
2018-10-09T01:11:51.961Z,9.78
2018-10-09T01:12:51.819Z,9.65
2018-10-09T01:13:51.726Z,9.68
2018-10-09T01:14:51.629Z,9.67
2018-10-09T01:17:33.668Z,9.62
2018-10-09T01:18:33.579Z,9.75
2018-10-09T01:19:33.481Z,9.71
2018-10-09T01:22:15.680Z,9.78
2018-10-09T01:23:15.580Z,9.78
2018-10-09T01:24:15.489Z,9.81
2018-10-09T01:25:15.422Z,9.81
2018-10-09T01:26:15.368Z,9.81
2018-10-09T01:27:15.263Z,9.92
2018-10-09T01:28:15.160Z,9.83
2018-10-09T01:30:57.146Z,9.85
2018-10-09T01:31:57.093Z,9.85
2018-10-09T01:32:57.025Z,9.81
2018-10-09T01:33:56.901Z,9.80
2018-10-09T01:34:56.820Z,9.78
2018-10-09T01:37:39.210Z,9.63
2018-10-09T01:38:39.088Z,9.73
2018-10-09T01:39:38.990Z,9.62
2018-10-09T01:40:38.909Z,9.60
2018-10-09T01:41:38.821Z,9.62
2018-10-09T01:42:38.763Z,9.58
2018-10-09T01:50:37.449Z,9.55
2018-10-09T01:51:37.279Z,9.42
2018-10-09T01:52:37.200Z,9.44
2018-10-09T01:53:37.138Z,9.45
2018-10-09T01:54:37.031Z,9.49
2018-10-09T01:55:36.978Z,9.50
2018-10-09T01:56:36.857Z,9.52
2018-10-09T01:57:36.773Z,9.60
2018-10-09T01:58:36.711Z,9.63
2018-10-09T01:59:36.633Z,9.52
2018-10-09T02:00:36.534Z,9.55
2018-10-09T02:01:36.447Z,9.52
2018-10-09T02:02:36.371Z,9.55
2018-10-09T02:03:36.295Z,9.60
2018-10-09T02:04:36.220Z,9.56
2018-10-09T02:05:36.098Z,9.62
2018-10-09T02:08:18.208Z,9.60
2018-10-09T02:09:18.102Z,9.59
2018-10-09T02:10:18.010Z,9.58
2018-10-09T02:11:17.950Z,9.56
2018-10-09T02:12:17.821Z,9.58
2018-10-09T02:13:17.743Z,9.58
2018-10-09T02:14:17.681Z,9.63
2018-10-09T02:15:17.619Z,9.65
2018-10-09T02:16:17.495Z,9.58
2018-10-09T02:17:17.419Z,9.59
2018-10-09T02:18:17.319Z,9.60
2018-10-09T02:19:17.275Z,9.58
2018-10-09T02:20:17.286Z,9.71
2018-10-09T02:21:17.076Z,9.70
2018-10-09T02:22:17.006Z,9.70
2018-10-09T02:23:16.923Z,9.56
2018-10-09T02:24:16.832Z,9.59
2018-10-09T02:25:17.757Z,9.55
2018-10-09T02:26:16.693Z,9.56
2018-10-09T02:27:16.584Z,9.55
2018-10-09T02:28:16.492Z,9.63
2018-10-09T02:30:58.676Z,9.50
2018-10-09T02:32:18.770Z,9.60
2018-10-09T02:35:22.687Z,9.52
2018-10-09T02:36:22.639Z,9.50
2018-10-09T02:37:22.500Z,9.41
2018-10-09T02:38:22.427Z,9.37
2018-10-09T02:39:22.334Z,9.40
2018-10-09T02:40:22.261Z,9.38
2018-10-09T02:41:22.174Z,9.42
2018-10-09T02:42:22.098Z,9.44
2018-10-09T02:43:21.995Z,9.42
2018-10-09T02:44:21.934Z,9.49
2018-10-09T02:45:21.834Z,9.35
2018-10-09T02:46:21.790Z,9.31
2018-10-09T02:47:21.654Z,9.37
2018-10-09T02:48:21.585Z,9.24
2018-10-09T02:49:21.503Z,9.30
2018-10-09T02:50:21.422Z,9.26
2018-10-09T02:51:21.347Z,9.24
2018-10-09T02:54:03.164Z,9.12
2018-10-09T02:55:03.096Z,9.24
2018-10-09T02:56:03.003Z,9.26
2018-10-09T02:57:02.959Z,9.17
2018-10-09T02:58:02.828Z,9.16
2018-10-09T02:59:02.762Z,9.10
2018-10-09T03:00:02.670Z,9.08
2018-10-09T03:02:44.687Z,9.13
2018-10-09T03:03:44.594Z,9.08
2018-10-09T03:04:44.498Z,9.08
2018-10-09T03:05:44.420Z,9.08
2018-10-09T03:06:44.331Z,9.12
2018-10-09T03:07:44.306Z,9.16
2018-10-09T03:08:44.166Z,9.12
2018-10-09T03:09:44.099Z,9.13
2018-10-09T03:11:04.985Z,9.12
2018-10-09T03:11:43.986Z,9.10
2018-10-09T03:12:43.854Z,9.12
2018-10-09T03:13:43.757Z,9.10
2018-10-09T03:14:43.678Z,9.06
2018-10-09T03:15:43.584Z,9.10
2018-10-09T03:16:43.495Z,9.06
2018-10-09T03:22:12.691Z,9.03
2018-10-09T03:23:12.594Z,9.01
2018-10-09T03:24:12.501Z,8.93
2018-10-09T03:25:12.421Z,9.08
2018-10-09T03:26:12.340Z,9.08
2018-10-09T03:27:12.312Z,9.15
2018-10-09T03:28:12.216Z,9.13
2018-10-09T03:30:54.189Z,9.06
2018-10-09T03:31:54.099Z,9.12
2018-10-09T03:32:54.022Z,9.13
2018-10-09T03:33:53.927Z,9.13
2018-10-09T03:34:53.850Z,9.16
2018-10-09T03:35:53.762Z,9.04
2018-10-09T03:36:53.672Z,8.94
2018-10-09T03:37:53.616Z,8.97
2018-10-09T03:38:53.520Z,8.96
2018-10-09T03:39:53.430Z,8.94
2018-10-09T03:40:53.339Z,8.96
2018-10-09T03:41:53.257Z,8.96
2018-10-09T03:42:53.177Z,9.03
2018-10-09T03:43:55.118Z,9.08
2018-10-09T03:44:53.000Z,9.13
2018-10-09T03:45:52.953Z,9.08
2018-10-09T03:46:52.837Z,9.12
2018-10-09T03:47:52.907Z,9.12
2018-10-09T03:48:52.703Z,9.08
2018-10-09T03:51:34.671Z,9.10
2018-10-09T03:52:34.602Z,9.08
2018-10-09T03:53:34.506Z,9.15
2018-10-09T03:54:34.465Z,9.12
2018-10-09T03:55:34.344Z,9.13
2018-10-09T03:56:34.275Z,9.13
2018-10-09T03:57:34.178Z,9.13
2018-10-09T03:58:34.094Z,9.12
2018-10-09T03:59:34.039Z,9.13
2018-10-09T04:00:33.923Z,9.10
2018-10-09T04:01:33.865Z,9.15
2018-10-09T04:02:33.769Z,9.08
2018-10-09T04:03:33.673Z,9.17
2018-10-09T04:04:34.601Z,9.13
2018-10-09T04:05:33.520Z,9.19
2018-10-09T04:06:33.433Z,9.13
2018-10-09T04:07:33.348Z,9.13
2018-10-09T04:08:33.264Z,9.19
2018-10-09T04:09:33.209Z,9.15
2018-10-09T04:10:33.113Z,9.16
2018-10-09T04:11:33.109Z,9.17
2018-10-09T04:12:32.942Z,9.27
2018-10-09T04:13:32.863Z,9.20
2018-10-09T04:14:32.921Z,9.27
2018-10-09T04:15:32.685Z,9.22
2018-10-09T04:16:32.601Z,9.27
2018-10-09T04:17:32.506Z,9.27
2018-10-09T04:18:32.438Z,9.19
2018-10-09T04:19:32.440Z,9.17
2018-10-09T04:20:32.258Z,9.34
2018-10-09T04:21:32.182Z,9.30
2018-10-09T04:24:14.183Z,9.23
2018-10-09T04:25:15.129Z,9.22
2018-10-09T04:26:14.060Z,9.27
2018-10-09T04:28:56.193Z,9.22
2018-10-09T04:29:56.188Z,9.17
2018-10-09T04:30:56.144Z,9.32
2018-10-09T04:31:56.034Z,9.19
2018-10-09T04:32:55.855Z,9.23
2018-10-09T04:33:55.813Z,9.16
2018-10-09T04:34:55.686Z,9.19
2018-10-09T04:35:55.613Z,9.26
2018-10-09T04:36:55.551Z,9.27
2018-10-09T04:37:55.520Z,9.17
2018-10-09T04:38:55.347Z,9.30
2018-10-09T04:39:55.341Z,9.31
2018-10-09T04:40:55.173Z,9.30
2018-10-09T04:41:55.184Z,9.24
2018-10-09T04:42:55.030Z,9.22
2018-10-09T04:43:54.996Z,9.27
2018-10-09T04:44:54.837Z,9.22
2018-10-09T04:47:36.712Z,9.35
2018-10-09T04:48:36.669Z,9.38
2018-10-09T04:49:36.515Z,9.41
2018-10-09T04:50:36.438Z,9.37
2018-10-09T04:51:36.359Z,9.37
2018-10-09T04:52:36.295Z,9.35
2018-10-09T04:53:36.180Z,9.38
2018-10-09T04:54:36.112Z,9.37
2018-10-09T04:55:36.071Z,9.44
2018-10-09T04:56:35.946Z,9.48
2018-10-09T04:57:35.874Z,9.52
2018-10-09T04:58:36.824Z,9.58
2018-10-09T04:59:35.689Z,9.53
2018-10-09T05:00:35.611Z,9.53
2018-10-09T05:01:35.515Z,9.58
2018-10-09T05:02:35.434Z,9.58
2018-10-09T05:03:35.372Z,9.59
2018-10-09T05:06:17.201Z,9.56
2018-10-09T05:08:59.205Z,9.60
2018-10-09T05:09:59.126Z,9.48
2018-10-09T05:10:59.023Z,9.44
2018-10-09T05:11:58.963Z,9.49
2018-10-09T05:12:58.858Z,9.50
2018-10-09T05:13:59.785Z,9.44
2018-10-09T05:14:58.689Z,9.38
2018-10-09T05:15:58.673Z,9.32
2018-10-09T05:37:20.712Z,9.35
2018-10-09T05:38:20.622Z,9.45
2018-10-09T05:39:20.523Z,9.44
2018-10-09T05:40:20.481Z,9.49
2018-10-09T05:41:20.367Z,9.58
2018-10-09T05:42:20.280Z,9.58
2018-10-09T05:45:02.208Z,9.52
2018-10-09T05:47:44.206Z,9.45
2018-10-09T05:48:44.128Z,9.53
2018-10-09T05:49:44.033Z,9.49
2018-10-09T05:50:43.992Z,9.44
2018-10-09T05:51:43.869Z,9.42
2018-10-09T05:52:43.945Z,9.37
2018-10-09T05:53:43.698Z,9.32
2018-10-09T05:54:43.623Z,9.37
2018-10-09T05:55:43.551Z,9.37
2018-10-09T05:58:25.730Z,9.41
2018-10-09T05:59:25.629Z,9.35
2018-10-09T06:00:25.535Z,9.38
2018-10-09T06:01:26.464Z,9.35
2018-10-09T06:02:25.374Z,9.38
2018-10-09T06:03:27.437Z,9.41
2018-10-09T06:04:25.211Z,9.53
2018-10-09T06:05:25.118Z,9.63
2018-10-09T06:06:25.056Z,9.58
2018-10-09T06:07:24.986Z,9.55
2018-10-09T06:08:24.857Z,9.65
2018-10-09T06:09:24.786Z,9.71
2018-10-09T06:10:24.699Z,9.73
2018-10-09T06:11:24.650Z,9.70
2018-10-09T06:12:24.527Z,9.71
2018-10-09T06:26:47.225Z,10.20
2018-10-09T06:27:47.181Z,10.22
2018-10-09T06:28:47.059Z,10.18
2018-10-09T06:31:29.226Z,10.20
2018-10-09T06:32:30.157Z,10.26
2018-10-09T06:33:29.082Z,10.25
2018-10-09T06:59:50.716Z,11.30
2018-10-09T07:02:32.706Z,11.36
2018-10-09T07:03:32.642Z,11.33
2018-10-09T07:04:32.606Z,11.62
2018-10-09T07:05:32.514Z,11.64
2018-10-09T07:06:32.388Z,11.74
2018-10-09T07:07:32.295Z,11.79
2018-10-09T07:08:32.211Z,11.93
2018-10-09T07:09:32.165Z,11.93
2018-10-09T07:10:32.083Z,11.98
2018-10-09T07:13:14.252Z,12.05
2018-10-09T07:14:14.128Z,12.07
2018-10-09T07:15:14.092Z,12.03
2018-10-09T07:16:13.977Z,12.16
2018-10-09T07:17:13.891Z,12.19
2018-10-09T07:18:13.811Z,12.30
2018-10-09T07:19:13.735Z,12.59
2018-10-09T07:20:14.671Z,13.07
2018-10-09T07:21:13.556Z,13.47
2018-10-09T07:22:13.486Z,13.53
2018-10-09T07:23:13.411Z,13.73
2018-10-09T07:24:13.316Z,13.93
2018-10-09T07:25:13.260Z,13.98
2018-10-09T07:26:13.208Z,14.17
2018-10-09T07:27:13.079Z,14.13
2018-10-09T07:29:55.334Z,13.39
2018-10-09T07:30:55.165Z,13.19
2018-10-09T07:31:55.061Z,13.38
2018-10-09T07:34:37.221Z,14.21
2018-10-09T07:35:37.175Z,14.45
2018-10-09T07:36:37.082Z,14.74
2018-10-09T07:39:19.208Z,14.45
2018-10-09T08:07:41.136Z,13.32
2018-10-09T08:08:41.033Z,13.72
2018-10-09T08:09:40.954Z,14.02
2018-10-09T08:10:43.823Z,14.04
2018-10-09T08:11:40.802Z,14.44
2018-10-09T08:12:40.718Z,15.09
2018-10-09T08:13:40.715Z,15.43
2018-10-09T08:14:40.559Z,15.80
2018-10-09T08:15:40.464Z,16.22
2018-10-09T08:18:22.747Z,16.62
2018-10-09T08:19:22.653Z,16.90
2018-10-09T08:20:22.591Z,17.28
2018-10-09T08:21:22.488Z,18.16
2018-10-09T08:22:22.501Z,18.74
2018-10-09T08:23:22.348Z,18.87
2018-10-09T08:24:22.247Z,18.97
2018-10-09T08:27:04.234Z,19.31
2018-10-09T08:28:04.243Z,19.10
2018-10-09T08:30:35.580Z,19.92
2018-10-09T08:31:35.472Z,19.79
2018-10-09T08:34:17.651Z,20.34
2018-10-09T08:35:17.552Z,20.63
2018-10-09T08:36:17.517Z,21.08
2018-10-09T08:37:17.381Z,21.49
2018-10-09T08:38:17.321Z,21.34
2018-10-09T08:39:17.229Z,20.98
2018-10-09T08:40:17.190Z,21.08
2018-10-09T08:41:17.110Z,20.85
2018-10-09T08:42:16.986Z,20.57
2018-10-09T08:43:16.948Z,20.40
2018-10-09T08:44:16.862Z,20.57
2018-10-09T08:46:59.126Z,20.48
2018-10-09T08:47:59.065Z,20.50
2018-10-09T08:48:58.994Z,20.01
2018-10-09T08:49:59.911Z,19.82
2018-10-09T08:50:58.873Z,20.10
2018-10-09T08:51:58.759Z,19.67
2018-10-09T08:52:58.654Z,19.94
2018-10-09T08:53:58.602Z,20.25
2018-10-09T08:54:58.524Z,20.30
2018-10-09T08:57:40.637Z,20.71
2018-10-09T09:00:22.648Z,21.52
2018-10-09T09:03:04.640Z,22.31
2018-10-09T09:04:04.564Z,22.27
2018-10-09T09:05:04.518Z,22.42
2018-10-09T09:06:04.410Z,22.75
2018-10-09T09:07:04.326Z,22.29
2018-10-09T09:09:46.749Z,22.42
2018-10-09T09:12:28.643Z,21.16
2018-10-09T09:15:10.702Z,21.51
2018-10-09T09:16:10.568Z,21.48
2018-10-09T09:17:10.502Z,21.85
2018-10-09T09:18:10.422Z,22.12
2018-10-09T09:19:10.379Z,22.01
2018-10-09T09:20:10.438Z,22.04
2018-10-09T09:21:10.257Z,22.01
2018-10-09T09:23:52.139Z,21.00
2018-10-09T09:24:52.098Z,20.60
2018-10-09T09:25:51.993Z,20.05
2018-10-09T09:26:52.121Z,20.46
2018-10-09T09:27:51.898Z,20.83
2018-10-09T09:28:51.763Z,21.45
2018-10-09T09:29:51.691Z,20.75
2018-10-09T09:32:33.665Z,18.71
2018-10-09T09:33:33.570Z,18.82
2018-10-09T09:34:33.493Z,19.01
2018-10-09T09:37:15.656Z,18.59
2018-10-09T09:38:15.585Z,18.53
2018-10-09T09:39:15.492Z,18.46
2018-10-09T09:40:15.435Z,18.74
2018-10-09T09:41:15.345Z,18.71
2018-10-09T09:42:15.338Z,18.74
2018-10-09T09:43:15.187Z,19.32
2018-10-09T09:44:15.142Z,19.62
2018-10-09T09:45:15.058Z,19.90
2018-10-09T09:47:57.165Z,19.80
2018-10-09T09:50:39.172Z,19.60
2018-10-09T09:51:39.082Z,19.35
2018-10-09T09:52:39.031Z,18.47
2018-10-09T09:53:38.924Z,18.28
2018-10-09T09:54:38.825Z,18.42
2018-10-09T09:55:38.758Z,18.31
2018-10-09T09:56:38.686Z,18.47
2018-10-09T09:57:39.729Z,18.19
2018-10-09T09:58:38.709Z,18.26
2018-10-09T09:59:38.477Z,18.60
2018-10-09T10:00:38.367Z,18.94
2018-10-09T10:01:38.288Z,19.12
2018-10-09T10:02:38.222Z,19.13
2018-10-09T10:03:39.169Z,19.31
2018-10-09T10:04:38.060Z,19.50
2018-10-09T10:07:20.173Z,18.78
2018-10-09T10:08:21.117Z,18.31
2018-10-09T10:09:20.031Z,18.04
2018-10-09T10:12:02.154Z,18.89
2018-10-09T10:14:44.176Z,19.82
2018-10-09T10:15:44.143Z,20.68
2018-10-09T10:16:44.064Z,21.38
2018-10-09T10:17:43.917Z,21.77
2018-10-09T10:18:43.884Z,21.89
2018-10-09T10:19:43.868Z,21.22
2018-10-09T10:20:43.697Z,21.66
2018-10-09T10:23:25.660Z,22.33
2018-10-09T10:24:25.623Z,22.94
2018-10-09T10:25:25.512Z,23.29
2018-10-09T10:28:07.679Z,23.03
2018-10-09T10:29:07.667Z,22.88
2018-10-09T10:30:07.508Z,22.26
2018-10-09T10:32:49.683Z,23.42
2018-10-09T10:33:49.588Z,23.71
2018-10-09T10:34:49.546Z,23.44
2018-10-09T10:35:49.556Z,23.96
2018-10-09T10:36:49.450Z,23.29
2018-10-09T10:37:49.288Z,23.62
2018-10-09T10:38:49.224Z,24.27
2018-10-09T10:39:49.163Z,24.82
2018-10-09T10:40:49.072Z,25.14
2018-10-09T10:43:31.163Z,24.94
2018-10-09T10:44:31.135Z,24.87
2018-10-09T10:45:31.148Z,24.31
2018-10-09T10:46:30.969Z,24.08
2018-10-09T10:47:30.872Z,23.35
2018-10-09T10:49:57.709Z,21.59
2018-10-09T10:50:57.608Z,21.38
2018-10-09T10:51:57.515Z,21.22
2018-10-09T10:54:39.671Z,22.02
2018-10-09T10:55:40.624Z,22.54
2018-10-09T10:56:39.618Z,22.66
2018-10-09T10:59:21.685Z,23.09
2018-10-09T11:00:21.636Z,23.22
2018-10-09T11:01:21.613Z,23.37
2018-10-09T11:04:03.687Z,23.59
2018-10-09T11:05:03.605Z,23.60
2018-10-09T11:06:03.567Z,23.44
2018-10-09T11:07:03.456Z,23.29
2018-10-09T11:08:03.407Z,23.74
2018-10-09T11:09:03.353Z,23.67
2018-10-09T11:10:03.230Z,24.36
2018-10-09T11:11:03.192Z,25.05
2018-10-09T11:12:03.080Z,25.56
2018-10-09T11:13:03.038Z,25.90
2018-10-09T11:14:02.938Z,25.53
2018-10-09T11:15:02.885Z,25.14
2018-10-09T11:16:02.814Z,25.85
2018-10-09T11:17:02.747Z,25.59
2018-10-09T11:18:02.656Z,25.11
2018-10-09T11:19:02.583Z,24.74
2018-10-09T11:20:02.496Z,24.00
2018-10-09T11:21:04.484Z,23.75
2018-10-09T11:22:02.386Z,23.96
2018-10-09T11:24:44.173Z,25.07
2018-10-09T11:25:45.138Z,24.87
2018-10-09T11:26:44.069Z,24.82
2018-10-09T11:27:43.976Z,24.53
2018-10-09T11:28:43.893Z,23.52
2018-10-09T11:31:26.224Z,22.69
2018-10-09T11:32:26.176Z,22.49
2018-10-09T11:33:26.041Z,22.49
2018-10-09T11:36:08.205Z,22.52
2018-10-09T11:37:08.153Z,23.23
2018-10-09T11:38:08.059Z,23.44
2018-10-09T11:39:07.983Z,23.29
2018-10-09T11:40:07.897Z,23.62
2018-10-09T11:41:08.016Z,23.92
2018-10-09T11:42:08.181Z,24.41
2018-10-09T11:44:49.853Z,25.35
2018-10-09T11:45:49.627Z,25.23
2018-10-09T11:46:49.566Z,25.31
2018-10-09T11:47:49.512Z,25.75
2018-10-09T11:48:49.410Z,25.08
2018-10-09T11:51:31.719Z,25.35
2018-10-09T11:52:31.635Z,25.76
2018-10-09T11:53:31.587Z,26.17
2018-10-09T11:54:31.504Z,26.19
2018-10-09T11:55:31.411Z,26.08
2018-10-09T11:56:31.387Z,26.73
2018-10-09T11:57:31.268Z,27.13
2018-10-09T11:58:31.240Z,26.96
2018-10-09T11:59:31.120Z,26.87
2018-10-09T12:00:31.048Z,27.02
2018-10-09T12:01:30.966Z,26.83
2018-10-09T12:02:30.923Z,26.79
2018-10-09T12:03:30.823Z,26.44
2018-10-09T12:04:30.770Z,25.45
2018-10-09T12:05:30.670Z,24.48
2018-10-09T12:06:30.621Z,23.44
2018-10-09T12:07:30.518Z,22.38
2018-10-09T12:08:30.507Z,22.05
2018-10-09T12:09:30.372Z,22.05
2018-10-09T12:12:12.213Z,21.94
2018-10-09T12:13:12.146Z,21.94
2018-10-09T12:14:12.169Z,21.86
2018-10-09T12:15:11.974Z,21.52
2018-10-09T12:16:11.895Z,21.09
2018-10-09T12:18:54.242Z,20.85
2018-10-09T12:19:54.176Z,20.68
2018-10-09T12:20:54.053Z,20.79
2018-10-09T12:21:53.992Z,21.00
2018-10-09T12:22:53.930Z,21.06
2018-10-09T12:23:53.854Z,21.27
2018-10-09T12:24:53.775Z,21.22
2018-10-09T12:25:53.677Z,21.26
2018-10-09T12:26:53.615Z,21.30
2018-10-09T12:27:53.516Z,21.30
2018-10-09T12:28:53.458Z,21.38
2018-10-09T12:29:53.483Z,21.38
2018-10-09T12:30:53.268Z,21.53
2018-10-09T12:33:35.234Z,21.37
2018-10-09T12:34:36.176Z,21.27
2018-10-09T12:35:35.083Z,21.30
2018-10-09T12:36:34.977Z,21.12
2018-10-09T12:37:34.894Z,21.13
2018-10-09T12:38:34.829Z,21.15
2018-10-09T12:39:34.785Z,21.28
2018-10-09T12:40:34.702Z,21.27
2018-10-09T12:41:34.583Z,21.38
2018-10-09T12:42:34.515Z,21.11
2018-10-09T12:43:34.430Z,21.30
2018-10-09T12:44:34.347Z,21.51
2018-10-09T12:45:34.297Z,21.49
2018-10-09T12:46:34.199Z,21.56
2018-10-09T12:47:34.162Z,21.67
2018-10-09T12:50:16.261Z,21.46
2018-10-09T12:51:16.166Z,21.21
2018-10-09T12:52:16.057Z,21.31
2018-10-09T12:54:58.224Z,21.16
2018-10-09T12:55:58.182Z,21.12
2018-10-09T12:56:58.070Z,21.15
2018-10-09T12:57:57.997Z,21.22
2018-10-09T12:58:57.913Z,21.16
2018-10-09T12:59:57.833Z,21.38
2018-10-09T13:00:57.777Z,21.52
2018-10-09T13:01:57.664Z,21.49
2018-10-09T13:02:57.641Z,21.58
2018-10-09T13:03:57.531Z,21.37
2018-10-09T13:04:57.423Z,21.34
2018-10-09T13:05:57.374Z,21.38
2018-10-09T13:06:57.279Z,21.15
2018-10-09T13:07:57.215Z,21.13
2018-10-09T13:08:57.106Z,21.12
2018-10-09T13:09:57.034Z,21.18
2018-10-09T13:10:56.970Z,21.16
2018-10-09T13:11:56.883Z,21.27
2018-10-09T13:12:56.800Z,21.33
2018-10-09T13:15:38.746Z,21.61
2018-10-09T13:16:38.694Z,21.73
2018-10-09T13:17:38.595Z,21.85
2018-10-09T13:18:38.515Z,21.98
2018-10-09T13:19:38.444Z,21.89
2018-10-09T13:20:38.328Z,21.79
2018-10-09T13:21:38.685Z,21.79
2018-10-09T13:22:38.294Z,21.89
2018-10-09T13:23:38.099Z,21.79
2018-10-09T13:26:20.243Z,21.90
2018-10-09T13:27:20.319Z,21.91
2018-10-09T13:28:20.100Z,21.94
2018-10-09T13:29:20.035Z,22.06
2018-10-09T13:30:19.926Z,22.08
2018-10-09T13:31:19.858Z,22.09
2018-10-09T13:32:19.928Z,22.14
2018-10-09T13:33:19.706Z,22.30
2018-10-09T13:34:19.638Z,22.02
2018-10-09T13:35:19.549Z,22.09
2018-10-09T13:36:19.463Z,22.11
2018-10-09T13:37:19.380Z,21.89
2018-10-09T13:38:19.330Z,21.66
2018-10-09T13:41:01.238Z,21.68
2018-10-09T13:42:01.182Z,21.75
2018-10-09T13:43:01.073Z,21.98
2018-10-09T13:44:01.038Z,21.83
2018-10-09T13:45:00.960Z,21.82
2018-10-09T13:47:42.819Z,21.75
2018-10-09T13:48:42.663Z,21.79
2018-10-09T13:49:42.612Z,21.86
2018-10-09T13:50:42.530Z,21.93
2018-10-09T13:51:42.430Z,21.90
2018-10-09T13:52:42.361Z,21.91
2018-10-09T13:53:42.295Z,21.91
2018-10-09T13:54:42.199Z,21.99
2018-10-09T13:55:42.111Z,22.01
2018-10-09T13:58:24.238Z,21.90
2018-10-09T13:59:24.193Z,21.96
2018-10-09T14:00:24.108Z,21.96
2018-10-09T14:03:06.417Z,21.90
2018-10-09T14:04:07.183Z,21.96
2018-10-09T14:05:06.103Z,21.91
2018-10-09T14:07:48.266Z,21.83
2018-10-09T14:08:48.168Z,21.83
2018-10-09T14:09:48.111Z,21.77
2018-10-09T14:10:48.020Z,21.81
2018-10-09T14:11:47.934Z,21.85
2018-10-09T14:12:47.883Z,21.81
2018-10-09T14:13:47.774Z,21.77
2018-10-09T14:14:47.722Z,21.77
2018-10-09T14:15:47.627Z,21.82
2018-10-09T14:16:47.564Z,21.82
2018-10-09T14:17:47.455Z,21.83
2018-10-09T14:20:29.769Z,21.99
2018-10-09T14:23:11.813Z,22.14
2018-10-09T14:25:53.766Z,22.30
2018-10-09T14:28:35.754Z,22.27
2018-10-09T14:29:35.681Z,22.33
2018-10-09T14:30:35.620Z,22.30
2018-10-09T14:31:35.538Z,22.31
2018-10-09T14:32:35.431Z,22.30
2018-10-09T14:33:35.371Z,22.35
2018-10-09T14:34:35.281Z,22.33
2018-10-09T14:35:35.237Z,22.31
2018-10-09T14:36:35.128Z,22.33
2018-10-09T14:39:17.250Z,22.31
2018-10-09T14:40:17.190Z,22.41
2018-10-09T14:41:17.203Z,22.36
2018-10-09T14:43:59.291Z,22.19
2018-10-09T14:44:59.202Z,22.05
2018-10-09T14:45:59.106Z,22.06
2018-10-09T14:46:59.042Z,22.08
2018-10-09T14:47:58.945Z,22.01
2018-10-09T14:48:58.881Z,21.91
2018-10-09T14:49:58.779Z,21.93
2018-10-09T14:50:58.713Z,21.96
2018-10-09T14:51:58.650Z,21.86
2018-10-09T14:52:58.573Z,22.02
2018-10-09T14:53:58.470Z,22.09
2018-10-09T14:54:58.408Z,22.04
2018-10-09T14:55:58.322Z,22.01
2018-10-09T14:56:58.262Z,22.05
2018-10-09T14:57:58.144Z,22.14
2018-10-09T15:00:40.267Z,22.09
2018-10-09T15:01:40.220Z,22.08
2018-10-09T15:02:40.115Z,22.09
2018-10-09T15:03:40.041Z,22.08
2018-10-09T15:04:39.970Z,22.08
2018-10-09T15:05:39.869Z,22.05
2018-10-09T15:06:39.805Z,22.02
2018-10-09T15:07:39.742Z,22.06
2018-10-09T15:08:39.634Z,22.05
2018-10-09T15:09:39.562Z,22.09
2018-10-09T15:10:39.470Z,22.06
2018-10-09T15:11:39.417Z,22.04
2018-10-09T15:12:39.348Z,22.09
2018-10-09T15:13:39.254Z,22.06
2018-10-09T15:14:39.163Z,22.12
2018-10-09T15:15:39.078Z,22.11
2018-10-09T15:16:39.029Z,22.12
2018-10-09T15:17:39.071Z,22.12
2018-10-09T15:18:38.832Z,22.09
2018-10-09T15:21:20.771Z,22.01
2018-10-09T15:22:20.738Z,22.05
2018-10-09T15:23:20.605Z,22.01
2018-10-09T15:24:20.725Z,21.94
2018-10-09T15:25:20.447Z,21.75
2018-10-09T15:28:02.292Z,21.74
2018-10-09T15:29:02.274Z,21.74
2018-10-09T15:30:02.116Z,21.85
2018-10-09T15:32:44.264Z,21.91
2018-10-09T15:33:44.191Z,21.85
2018-10-09T15:34:44.128Z,21.77
2018-10-09T15:35:44.060Z,21.85
2018-10-09T15:36:43.947Z,21.77
2018-10-09T15:39:25.805Z,21.61
2018-10-09T15:42:07.777Z,21.64
2018-10-09T15:44:49.790Z,21.63
2018-10-09T15:45:49.705Z,21.51
2018-10-09T15:46:49.624Z,21.55
2018-10-09T15:47:49.539Z,21.56
2018-10-09T15:48:49.463Z,21.51
2018-10-09T15:49:49.405Z,21.56
2018-10-09T15:50:49.302Z,21.51
2018-10-09T15:51:49.219Z,21.45
2018-10-09T15:52:49.253Z,21.45
2018-10-09T15:53:49.071Z,21.43
2018-10-09T15:54:49.012Z,21.26
2018-10-09T15:55:48.902Z,21.26
2018-10-09T15:56:48.826Z,21.22
2018-10-09T15:59:30.786Z,21.21
2018-10-09T16:00:30.762Z,21.19
2018-10-09T16:01:30.627Z,21.21
2018-10-09T16:02:30.555Z,21.16
2018-10-09T16:03:30.467Z,21.18
2018-10-09T16:04:30.405Z,21.16
2018-10-09T16:05:30.316Z,21.21
2018-10-09T16:06:30.236Z,21.18
2018-10-09T16:07:30.148Z,21.15
2018-10-09T16:08:30.088Z,21.11
2018-10-09T16:09:30.016Z,21.05
2018-10-09T16:10:29.928Z,21.01
2018-10-09T16:11:29.824Z,20.98
2018-10-09T16:12:29.761Z,20.90
2018-10-09T16:13:29.668Z,20.88
2018-10-09T16:14:29.596Z,20.87
2018-10-09T16:15:29.544Z,20.71
2018-10-09T16:16:29.461Z,20.64
2018-10-09T16:17:29.355Z,20.57
2018-10-09T16:18:29.298Z,20.56
2018-10-09T16:19:29.194Z,20.56
2018-10-09T16:20:29.169Z,20.61
2018-10-09T16:21:29.026Z,20.58
2018-10-09T16:22:28.976Z,20.56
2018-10-09T16:23:28.868Z,20.48
2018-10-09T16:24:28.815Z,20.44
2018-10-09T16:25:28.744Z,20.46
2018-10-09T16:28:10.803Z,20.33
2018-10-09T16:29:10.712Z,20.33
2018-10-09T16:30:10.628Z,20.26
2018-10-09T16:31:10.563Z,20.27
2018-10-09T16:32:10.551Z,20.15
2018-10-09T16:33:10.392Z,20.15
2018-10-09T16:34:10.326Z,20.07
2018-10-09T16:35:10.233Z,20.10
2018-10-09T16:36:10.158Z,20.04
2018-10-09T16:37:10.083Z,19.94
2018-10-09T16:38:09.988Z,19.95
2018-10-09T16:39:09.954Z,19.80
2018-10-09T16:40:09.829Z,19.82
2018-10-09T16:41:09.757Z,19.76
2018-10-09T16:42:09.685Z,19.67
2018-10-09T16:43:09.606Z,19.64
2018-10-09T16:44:09.517Z,19.60
2018-10-09T16:45:09.445Z,19.47
2018-10-09T16:46:09.364Z,19.38
2018-10-09T16:47:09.380Z,19.24
2018-10-09T16:48:09.211Z,19.15
2018-10-09T16:49:09.128Z,19.15
2018-10-09T16:50:09.032Z,18.97
2018-10-09T16:51:08.987Z,18.99
2018-10-09T16:52:08.901Z,18.84
2018-10-09T16:53:08.820Z,18.82
2018-10-09T16:54:08.718Z,18.68
2018-10-09T16:56:50.801Z,18.64
2018-10-09T16:57:50.746Z,18.60
2018-10-09T16:58:50.638Z,18.66
2018-10-09T16:59:50.563Z,18.59
2018-10-09T17:00:50.489Z,18.46
2018-10-09T17:01:50.401Z,18.60
2018-10-09T17:02:50.340Z,18.71
2018-10-09T17:03:50.247Z,18.74
2018-10-09T17:04:50.157Z,18.93
2018-10-09T17:05:50.167Z,18.90
2018-10-09T17:06:50.014Z,18.87
2018-10-09T17:07:49.940Z,18.75
2018-10-09T17:08:49.863Z,18.74
2018-10-09T17:09:49.760Z,18.71
2018-10-09T17:10:49.678Z,18.60
2018-10-09T17:11:49.635Z,18.62
2018-10-09T17:12:49.536Z,18.54
2018-10-09T17:13:49.479Z,18.60
2018-10-09T17:14:49.363Z,18.62
2018-10-09T17:15:49.355Z,18.51
2018-10-09T17:16:49.200Z,18.41
2018-10-09T17:17:49.143Z,18.41
2018-10-09T17:18:49.181Z,18.31
2018-10-09T17:19:49.053Z,18.32
2018-10-09T17:20:48.873Z,18.26
2018-10-09T17:21:48.805Z,18.23
2018-10-09T17:22:48.725Z,18.17
2018-10-09T17:23:48.683Z,18.04
2018-10-09T17:24:48.559Z,18.10
2018-10-09T17:25:48.494Z,18.23
2018-10-09T17:26:48.461Z,18.26
2018-10-09T17:27:48.319Z,18.25
2018-10-09T17:28:48.385Z,18.14
2018-10-09T17:29:48.168Z,18.14
2018-10-09T17:30:48.095Z,18.10
2018-10-09T17:31:48.046Z,17.91
2018-10-09T17:32:47.921Z,17.80
2018-10-09T17:35:29.832Z,17.74
2018-10-09T17:36:29.734Z,17.51
2018-10-09T17:37:29.661Z,17.45
2018-10-09T17:38:29.608Z,17.39
2018-10-09T17:39:29.512Z,17.36
2018-10-09T17:40:29.434Z,17.33